Time;durP1;ratioP1;P1;durP2;ratioP2;P2;SDS_P1;SDS_P2;PMS_P1;PMS_P2;Temp;Humidity;BMP_temperature;BMP_pressure;BME280_temperature;BME280_humidity;BME280_pressure;Samples;Min_cycle;Max_cycle;Signal;HPM_P1;HPM_P2
2022/06/13 00:01:58;;;;;;;9.15;5.40;;;11.60;99.90;;;;;;4940080;28;20046;-76
2022/06/13 00:04:24;;;;;;;13.05;5.90;;;11.60;99.90;;;;;;4931988;28;20094;-76
2022/06/13 00:06:49;;;;;;;8.05;5.25;;;11.70;99.90;;;;;;4928258;28;20493;-77
2022/06/13 00:09:15;;;;;;;12.10;5.57;;;11.70;99.90;;;;;;4933862;29;20051;-77
2022/06/13 00:11:44;;;;;;;9.82;5.22;;;11.70;99.90;;;;;;4940240;28;20500;-78
2022/06/13 00:14:13;;;;;;;8.82;5.28;;;11.80;99.90;;;;;;4940518;28;20142;-78
2022/06/13 00:16:39;;;;;;;11.13;5.78;;;11.80;99.90;;;;;;4930453;28;20042;-78
2022/06/13 00:19:05;;;;;;;11.45;5.53;;;11.80;99.90;;;;;;4933249;28;20130;-77
2022/06/13 00:21:36;;;;;;;8.02;5.60;;;11.80;99.90;;;;;;4925533;29;20489;-78
2022/06/13 00:24:09;;;;;;;11.40;5.68;;;11.90;99.90;;;;;;4940029;28;20527;-78
2022/06/13 00:26:40;;;;;;;7.95;5.47;;;11.90;99.90;;;;;;4931806;28;20048;-78
2022/06/13 00:29:06;;;;;;;7.93;5.43;;;11.90;99.90;;;;;;4932227;28;20043;-78
2022/06/13 00:31:34;;;;;;;10.25;6.07;;;11.90;99.90;;;;;;4933701;28;20043;-78
2022/06/13 00:34:03;;;;;;;10.45;5.75;;;11.90;99.90;;;;;;4924343;28;20133;-78
2022/06/13 00:36:29;;;;;;;12.32;6.70;;;12.00;99.90;;;;;;4945361;28;20049;-78
2022/06/13 00:39:15;;;;;;;11.85;6.43;;;12.00;99.90;;;;;;4933491;28;20077;-78
2022/06/13 00:41:45;;;;;;;11.57;7.40;;;12.00;99.90;;;;;;4941893;28;20129;-78
2022/06/13 00:44:20;;;;;;;10.70;6.85;;;12.10;99.90;;;;;;4937469;28;20047;-78
2022/06/13 00:46:47;;;;;;;11.68;7.05;;;12.10;99.90;;;;;;4919996;28;20043;-78
2022/06/13 00:49:28;;;;;;;12.65;6.65;;;12.20;99.90;;;;;;4941068;28;20046;-78
2022/06/13 00:52:01;;;;;;;12.23;6.88;;;12.20;99.90;;;;;;4931676;28;20038;-78
2022/06/13 00:54:34;;;;;;;11.13;6.63;;;12.30;99.90;;;;;;4957624;28;20137;-78
2022/06/13 00:57:00;;;;;;;11.43;6.47;;;12.30;99.90;;;;;;4930919;28;20047;-78
2022/06/13 00:59:33;;;;;;;11.25;6.32;;;12.30;99.90;;;;;;4949659;28;20053;-78
2022/06/13 01:01:59;;;;;;;11.77;6.53;;;12.30;99.90;;;;;;4950239;28;20039;-78
2022/06/13 01:04:35;;;;;;;;;;;;;;;;;;;;;
2022/06/13 01:07:05;;;;;;;14.07;7.40;;;12.30;99.90;;;;;;4945157;28;20043;-78
2022/06/13 01:12:20;;;;;;;10.85;6.85;;;12.40;99.90;;;;;;4939895;28;20047;-78
2022/06/13 01:15:07;;;;;;;12.30;7.40;;;12.40;99.90;;;;;;4940615;28;20039;-78
2022/06/13 01:17:59;;;;;;;11.00;6.78;;;12.40;99.90;;;;;;4930909;28;20051;-78
2022/06/13 01:20:49;;;;;;;9.65;6.43;;;12.40;99.90;;;;;;4902980;29;20066;-78
2022/06/13 01:23:32;;;;;;;11.45;6.43;;;12.40;99.90;;;;;;4916880;28;20130;-77
2022/06/13 01:26:22;;;;;;;8.77;5.73;;;12.40;99.90;;;;;;4931456;28;20054;-78
2022/06/13 01:29:06;;;;;;;9.82;6.60;;;12.30;99.90;;;;;;4933264;29;20053;-78
2022/06/13 01:31:55;;;;;;;10.35;6.43;;;12.30;99.90;;;;;;4922826;29;20047;-78
2022/06/13 01:34:21;;;;;;;11.90;6.75;;;12.30;99.90;;;;;;4926961;28;20047;-78
2022/06/13 01:37:27;;;;;;;11.57;7.05;;;12.20;99.90;;;;;;4934516;28;20035;-78
2022/06/13 01:40:16;;;;;;;11.93;6.88;;;12.30;99.90;;;;;;4936503;28;20043;-78
2022/06/13 01:43:22;;;;;;;11.65;7.10;;;12.30;99.90;;;;;;4940127;28;20047;-78
2022/06/13 01:46:17;;;;;;;9.93;6.03;;;12.30;99.90;;;;;;4921497;28;20044;-78
2022/06/13 01:48:50;;;;;;;9.43;6.30;;;12.30;99.90;;;;;;4931758;28;20078;-78
2022/06/13 01:51:40;;;;;;;12.00;6.50;;;12.40;99.90;;;;;;4930181;29;20047;-78
2022/06/13 01:54:17;;;;;;;11.45;6.15;;;12.40;99.90;;;;;;4936533;28;20074;-78
2022/06/13 01:57:02;;;;;;;11.25;6.65;;;12.40;99.90;;;;;;4950008;28;20047;-78
2022/06/13 01:59:41;;;;;;;9.60;5.97;;;12.40;99.90;;;;;;4924248;29;20047;-78
2022/06/13 02:02:19;;;;;;;10.88;5.80;;;12.40;99.90;;;;;;4909877;29;20098;-78
2022/06/13 02:04:59;;;;;;;10.90;5.85;;;12.40;99.90;;;;;;4939234;28;20129;-78
2022/06/13 02:07:32;;;;;;;10.93;6.35;;;12.40;99.90;;;;;;4943090;28;20052;-78
2022/06/13 02:10:06;;;;;;;11.40;6.30;;;12.40;99.90;;;;;;4957213;28;20047;-78
2022/06/13 02:12:36;;;;;;;10.70;6.15;;;12.40;99.90;;;;;;4936319;28;20055;-78
2022/06/13 02:15:20;;;;;;;12.50;6.38;;;12.40;99.90;;;;;;4947639;28;20125;-78
2022/06/13 02:17:53;;;;;;;10.07;6.22;;;12.40;99.90;;;;;;4937261;28;20490;-78
2022/06/13 02:20:27;;;;;;;10.52;5.97;;;12.40;99.90;;;;;;4937034;29;20394;-78
2022/06/13 02:23:00;;;;;;;11.65;6.63;;;12.30;99.90;;;;;;4961273;28;20085;-78
2022/06/13 02:25:43;;;;;;;14.40;6.30;;;12.40;99.90;;;;;;4942729;28;20082;-78
2022/06/13 02:28:31;;;;;;;10.85;5.85;;;12.40;99.90;;;;;;4943164;28;20039;-78
2022/06/13 02:31:12;;;;;;;12.35;6.60;;;12.30;99.90;;;;;;4933925;28;20051;-78
2022/06/13 02:33:48;;;;;;;12.75;7.35;;;12.30;99.90;;;;;;4943903;28;20117;-78
2022/06/13 02:36:40;;;;;;;12.55;7.00;;;12.30;99.90;;;;;;4937044;28;20066;-78
2022/06/13 02:39:19;;;;;;;11.38;6.07;;;12.30;99.90;;;;;;4943426;28;20043;-78
2022/06/13 02:42:32;;;;;;;11.35;6.95;;;12.40;99.90;;;;;;4925295;28;20035;-78
2022/06/13 02:45:11;;;;;;;12.40;7.32;;;12.40;99.90;;;;;;4910578;28;20490;-78
2022/06/13 02:47:54;;;;;;;14.93;7.75;;;12.40;99.90;;;;;;4935798;28;20449;-78
2022/06/13 02:50:38;;;;;;;14.00;7.30;;;12.40;99.90;;;;;;4943810;28;20054;-78
2022/06/13 02:53:22;;;;;;;13.63;7.68;;;12.40;99.90;;;;;;4933003;28;20409;-78
2022/06/13 02:56:10;;;;;;;13.60;7.53;;;12.40;99.90;;;;;;4936209;28;20065;-78
2022/06/13 02:59:01;;;;;;;16.38;8.48;;;12.40;99.90;;;;;;4954613;28;20513;-78
2022/06/13 03:01:35;;;;;;;12.63;8.00;;;12.40;99.90;;;;;;4954053;28;20039;-78
2022/06/13 03:04:36;;;;;;;13.02;7.90;;;12.40;99.90;;;;;;4940770;28;20109;-78
2022/06/13 03:07:26;;;;;;;12.68;8.10;;;12.40;99.90;;;;;;4942713;23;20093;-83
2022/06/13 03:09:59;;;;;;;14.93;8.23;;;12.30;99.90;;;;;;4924743;29;20525;-81
2022/06/13 03:12:29;;;;;;;;;;;12.30;99.90;;;;;;4923152;29;20085;-81
2022/06/13 03:15:06;;;;;;;10.40;7.50;;;12.30;99.90;;;;;;4921207;28;20295;-81
2022/06/13 03:17:47;;;;;;;13.23;7.85;;;12.30;99.90;;;;;;4912283;29;20032;-81
2022/06/13 03:20:22;;;;;;;14.98;8.80;;;12.30;99.90;;;;;;4932058;28;20067;-81
2022/06/13 03:23:15;;;;;;;14.25;8.18;;;12.30;99.90;;;;;;4933395;28;20125;-81
2022/06/13 03:25:58;;;;;;;14.23;8.70;;;12.30;99.90;;;;;;4952579;28;20563;-81
2022/06/13 03:28:30;;;;;;;;;;;12.30;99.90;;;;;;4929599;28;20046;-80
2022/06/13 03:31:04;;;;;;;13.02;8.05;;;12.30;99.90;;;;;;4934851;29;19922;-81
2022/06/13 03:33:40;;;;;;;16.13;9.27;;;12.30;99.90;;;;;;4929980;29;20079;-81
2022/06/13 03:36:40;;;;;;;16.48;9.48;;;12.30;99.90;;;;;;4929377;28;20043;-81
2022/06/13 03:39:18;;;;;;;16.02;9.10;;;12.30;99.90;;;;;;4940274;28;20046;-81
2022/06/13 03:42:04;;;;;;;14.85;9.90;;;12.30;99.90;;;;;;4929771;28;20082;-81
2022/06/13 03:44:52;;;;;;;15.07;9.52;;;12.40;99.90;;;;;;4941776;28;20047;-81
2022/06/13 03:47:41;;;;;;;17.00;9.43;;;12.40;99.90;;;;;;4918607;28;20046;-80
2022/06/13 03:50:15;;;;;;;17.95;9.93;;;12.40;99.90;;;;;;4934746;28;20143;-81
2022/06/13 03:52:48;;;;;;;18.42;10.68;;;12.40;99.90;;;;;;4948835;28;20043;-81
2022/06/13 03:55:23;;;;;;;15.38;9.52;;;12.50;99.90;;;;;;4933621;28;20038;-81
2022/06/13 03:58:12;;;;;;;19.00;10.60;;;12.50;99.90;;;;;;4924493;28;20035;-81
2022/06/13 04:00:44;;;;;;;18.25;9.80;;;12.60;99.90;;;;;;4932995;28;20101;-81
2022/06/13 04:03:10;;;;;;;15.90;9.93;;;12.60;99.90;;;;;;4940876;28;20046;-81
2022/06/13 04:06:02;;;;;;;17.33;10.43;;;12.70;99.90;;;;;;4950510;28;20035;-81
2022/06/13 04:08:32;;;;;;;15.60;10.38;;;12.70;99.90;;;;;;4931349;28;20045;-81
2022/06/13 04:11:16;;;;;;;17.80;10.40;;;12.80;99.90;;;;;;4932552;28;20125;-81
2022/06/13 04:13:59;;;;;;;17.35;10.68;;;12.80;99.90;;;;;;4933069;28;20122;-81
2022/06/13 04:16:36;;;;;;;18.40;10.43;;;12.80;99.90;;;;;;4926120;28;20434;-80
2022/06/13 04:19:27;;;;;;;19.05;11.13;;;12.90;99.90;;;;;;4920568;29;20502;-81
2022/06/13 04:22:02;;;;;;;18.30;11.02;;;12.90;99.90;;;;;;4927124;28;20054;-81
2022/06/13 04:24:39;;;;;;;18.30;10.10;;;13.00;99.90;;;;;;4931486;28;20047;-81
2022/06/13 04:27:21;;;;;;;16.67;10.13;;;13.00;99.90;;;;;;4930922;28;20513;-81
2022/06/13 04:30:02;;;;;;;16.05;9.48;;;12.90;99.90;;;;;;4956122;28;20126;-81
2022/06/13 04:33:06;;;;;;;16.48;9.73;;;13.00;99.90;;;;;;4941848;29;20041;-83
2022/06/13 04:35:34;;;;;;;17.92;9.70;;;13.00;99.90;;;;;;4898427;29;20134;-80
2022/06/13 04:38:03;;;;;;;13.68;9.05;;;13.00;99.90;;;;;;4932932;28;20050;-81
2022/06/13 04:40:31;;;;;;;16.02;8.45;;;13.00;99.90;;;;;;4922664;29;20094;-81
2022/06/13 04:42:58;;;;;;;14.32;9.35;;;13.10;99.90;;;;;;4926758;28;20043;-80
2022/06/13 04:45:28;;;;;;;14.20;9.02;;;13.00;99.90;;;;;;4931382;28;20077;-80
2022/06/13 04:47:56;;;;;;;14.52;8.45;;;13.20;99.90;;;;;;4924150;28;20134;-80
2022/06/13 04:50:56;;;;;;;13.95;7.72;;;13.40;99.90;;;;;;4928583;29;20070;-80
2022/06/13 04:53:31;;;;;;;10.10;6.20;;;13.60;99.90;;;;;;4904382;29;20572;-80
2022/06/13 04:55:59;;;;;;;9.25;5.70;;;13.90;99.90;;;;;;4945995;28;20082;-80
2022/06/13 04:58:39;;;;;;;8.20;4.07;;;14.20;99.90;;;;;;4937833;29;20071;-81
2022/06/13 05:01:13;;;;;;;9.35;3.53;;;14.50;99.90;;;;;;4933368;28;20042;-81
2022/06/13 05:03:43;;;;;;;8.57;3.72;;;14.80;99.90;;;;;;4931290;29;20098;-81
2022/06/13 05:06:31;;;;;;;5.18;2.83;;;14.90;99.90;;;;;;4939484;28;20038;-81
2022/06/13 05:09:22;;;;;;;7.40;2.90;;;14.90;99.90;;;;;;4959032;28;20042;-81
2022/06/13 05:12:11;;;;;;;4.70;2.67;;;14.90;99.90;;;;;;4921998;28;20098;-79
2022/06/13 05:14:46;;;;;;;6.28;2.65;;;14.90;99.90;;;;;;4919756;29;20039;-81
2022/06/13 05:17:50;;;;;;;7.38;2.55;;;14.80;99.90;;;;;;4928611;28;20051;-81
2022/06/13 05:20:26;;;;;;;4.97;2.30;;;14.80;99.90;;;;;;4932198;28;20038;-81
2022/06/13 05:23:28;;;;;;;5.10;2.67;;;14.70;99.90;;;;;;4935618;28;20509;-81
2022/06/13 05:25:57;;;;;;;4.90;2.70;;;14.80;99.90;;;;;;4922258;28;20453;-81
2022/06/13 05:28:27;;;;;;;6.78;2.78;;;14.90;99.90;;;;;;4948526;28;20495;-79
2022/06/13 05:30:56;;;;;;;5.68;2.40;;;15.20;99.90;;;;;;4938867;28;20054;-80
2022/06/13 05:33:24;;;;;;;5.32;1.80;;;15.30;99.90;;;;;;4923834;29;20175;-81
2022/06/13 05:35:56;;;;;;;3.90;2.03;;;15.50;99.90;;;;;;4947882;28;20046;-81
2022/06/13 05:38:35;;;;;;;6.97;2.60;;;15.60;99.90;;;;;;4944421;28;20047;-81
2022/06/13 05:41:01;;;;;;;4.90;2.05;;;15.80;99.90;;;;;;4929969;28;20035;-81
2022/06/13 05:43:27;;;;;;;4.68;1.83;;;16.10;99.90;;;;;;4923177;28;20121;-81
2022/06/13 05:45:52;;;;;;;5.25;1.70;;;16.50;99.90;;;;;;4947362;28;20117;-81
2022/06/13 05:48:21;;;;;;;3.97;1.60;;;16.80;99.90;;;;;;4955630;28;20498;-81
2022/06/13 05:50:47;;;;;;;4.60;1.70;;;17.20;99.90;;;;;;4939785;29;20056;-81
2022/06/13 05:53:20;;;;;;;5.32;1.70;;;17.40;99.90;;;;;;4945013;29;20046;-82
2022/06/13 05:55:50;;;;;;;2.35;1.30;;;17.30;99.90;;;;;;4944915;29;20490;-82
2022/06/13 05:58:17;;;;;;;3.75;1.27;;;17.10;99.90;;;;;;4923643;29;20043;-82
2022/06/13 06:00:49;;;;;;;2.35;1.20;;;16.90;99.90;;;;;;4938029;29;20386;-81
2022/06/13 06:03:15;;;;;;;3.23;1.30;;;16.60;99.90;;;;;;4931327;29;20130;-81
2022/06/13 06:05:41;;;;;;;3.20;1.15;;;16.50;99.90;;;;;;4918145;29;20174;-82
2022/06/13 06:08:19;;;;;;;3.28;1.20;;;16.50;99.90;;;;;;4923198;29;20063;-82
2022/06/13 06:10:47;;;;;;;4.00;1.40;;;16.30;99.90;;;;;;4927834;28;20053;-82
2022/06/13 06:13:13;;;;;;;1.95;1.20;;;16.30;99.90;;;;;;4914365;29;20051;-82
2022/06/13 06:15:40;;;;;;;5.22;1.60;;;16.20;99.90;;;;;;4928875;29;20035;-81
2022/06/13 06:18:06;;;;;;;4.60;1.27;;;16.10;99.90;;;;;;4925752;28;20417;-80
2022/06/13 06:20:32;;;;;;;3.88;1.35;;;16.00;99.90;;;;;;4919817;29;20133;-81
2022/06/13 06:22:57;;;;;;;2.85;1.23;;;15.90;99.90;;;;;;4930932;28;20039;-81
2022/06/13 06:25:23;;;;;;;3.08;1.38;;;16.10;99.90;;;;;;4924524;28;20039;-82
2022/06/13 06:27:48;;;;;;;5.40;1.50;;;16.10;99.90;;;;;;4935484;28;20039;-82
2022/06/13 06:30:16;;;;;;;3.85;1.70;;;16.30;99.90;;;;;;4929757;28;20035;-82
2022/06/13 06:32:42;;;;;;;5.18;1.33;;;16.30;99.90;;;;;;4928104;28;20093;-81
2022/06/13 06:35:08;;;;;;;4.57;1.42;;;16.40;99.90;;;;;;4950463;28;20429;-82
2022/06/13 06:37:37;;;;;;;6.63;1.60;;;16.30;99.90;;;;;;4942052;28;20035;-82
2022/06/13 06:40:02;;;;;;;3.45;1.08;;;16.30;99.90;;;;;;4941415;28;20039;-82
2022/06/13 06:42:28;;;;;;;3.45;1.35;;;16.30;99.90;;;;;;4940630;28;20050;-82
2022/06/13 06:44:54;;;;;;;5.97;1.80;;;16.50;99.90;;;;;;4942220;28;20042;-81
2022/06/13 06:47:19;;;;;;;6.28;1.40;;;16.80;99.90;;;;;;4942039;28;20038;-81
2022/06/13 06:49:47;;;;;;;2.85;1.27;;;16.90;99.90;;;;;;4941832;28;20502;-82
2022/06/13 06:52:13;;;;;;;3.15;1.15;;;17.00;99.90;;;;;;4958372;28;20105;-82
2022/06/13 07:00:08;;;;;;;4.05;1.20;;;16.40;99.90;;;;;;4957955;28;20054;-81
2022/06/13 07:02:34;;;;;;;4.47;1.20;;;16.10;99.90;;;;;;4941966;28;20057;-81
2022/06/13 07:05:04;;;;;;;6.25;1.40;;;15.80;99.90;;;;;;4941902;28;20050;-81
2022/06/13 07:07:30;;;;;;;3.72;1.15;;;15.50;99.90;;;;;;4941336;28;20043;-82
2022/06/13 07:09:56;;;;;;;5.20;1.73;;;15.50;99.90;;;;;;4941436;28;20043;-81
2022/06/13 07:12:22;;;;;;;3.70;1.27;;;15.30;99.90;;;;;;4941660;28;20046;-81
2022/06/13 07:14:47;;;;;;;4.57;1.27;;;15.20;99.90;;;;;;4941554;28;20039;-81
2022/06/13 07:17:14;;;;;;;2.67;1.08;;;15.20;99.90;;;;;;4941812;28;20405;-81
2022/06/13 07:19:43;;;;;;;2.45;1.17;;;15.30;99.90;;;;;;4941392;28;20086;-81
2022/06/13 07:22:14;;;;;;;2.08;1.00;;;15.50;99.90;;;;;;4941585;28;20093;-81
2022/06/13 07:24:39;;;;;;;2.15;0.98;;;15.60;99.90;;;;;;4941354;28;20042;-81
2022/06/13 07:27:05;;;;;;;2.47;1.13;;;15.70;99.90;;;;;;4941197;28;20080;-81
2022/06/13 07:29:31;;;;;;;4.47;1.23;;;15.60;99.90;;;;;;4957006;28;20042;-81
2022/06/13 07:32:17;;;;;;;3.78;1.17;;;15.60;99.90;;;;;;4956974;28;20189;-82
2022/06/13 07:34:46;;;;;;;3.03;1.20;;;15.80;99.90;;;;;;4941407;28;20053;-82
2022/06/13 07:38:16;;;;;;;3.97;1.17;;;16.00;99.90;;;;;;4957112;28;20039;-82
2022/06/13 07:40:02;;;;;;;4.05;1.05;;;16.30;99.90;;;;;;4957013;28;20047;-81
2022/06/13 07:42:32;;;;;;;4.47;1.27;;;16.60;99.90;;;;;;4941001;28;20177;-82
2022/06/13 07:44:57;;;;;;;3.50;1.20;;;17.00;99.90;;;;;;4940909;28;20069;-82
2022/06/13 07:47:23;;;;;;;2.97;1.23;;;17.20;99.90;;;;;;4941193;28;20533;-82
2022/06/13 07:49:49;;;;;;;5.07;1.33;;;17.30;99.90;;;;;;4940704;28;20037;-82
2022/06/13 07:52:14;;;;;;;3.10;1.27;;;17.80;99.90;;;;;;4941033;28;20077;-82
2022/06/13 07:54:40;;;;;;;2.10;1.00;;;18.60;99.90;;;;;;4957038;28;20046;-82
2022/06/13 07:57:05;;;;;;;2.03;0.98;;;19.50;99.90;;;;;;4941267;28;20035;-82
2022/06/13 07:59:31;;;;;;;3.63;0.90;;;19.90;99.90;;;;;;4956545;28;20042;-83
2022/06/13 08:01:58;;;;;;;5.20;1.10;;;20.00;99.90;;;;;;4941188;28;20099;-82
2022/06/13 08:04:24;;;;;;;1.55;0.73;;;20.00;99.90;;;;;;4940668;28;20057;-82
2022/06/13 08:06:49;;;;;;;3.40;0.88;;;19.70;99.90;;;;;;4940543;28;20046;-81
2022/06/13 08:09:15;;;;;;;2.83;1.00;;;19.40;99.90;;;;;;4940474;28;20046;-82
2022/06/13 08:11:48;;;;;;;2.63;0.90;;;18.90;99.90;;;;;;4956866;28;20046;-82
2022/06/13 08:14:15;;;;;;;5.93;1.02;;;18.70;99.90;;;;;;4940538;28;20039;-82
2022/06/13 08:16:40;;;;;;;3.63;0.68;;;18.60;99.90;;;;;;4940678;28;20389;-82
2022/06/13 08:19:06;;;;;;;3.13;0.82;;;18.50;99.90;;;;;;4940462;28;20038;-82
2022/06/13 08:21:35;;;;;;;5.57;0.98;;;18.20;99.90;;;;;;4956466;28;20039;-84
2022/06/13 08:24:02;;;;;;;2.97;0.80;;;17.80;99.90;;;;;;4940559;28;20441;-83
2022/06/13 08:26:28;;;;;;;4.40;1.00;;;17.40;99.90;;;;;;4940415;28;20114;-82
2022/06/13 08:28:54;;;;;;;4.45;1.10;;;16.90;99.90;;;;;;4940022;28;20051;-83
2022/06/13 08:31:22;;;;;;;2.45;0.90;;;16.60;99.90;;;;;;4940446;28;20038;-83
2022/06/13 08:33:48;;;;;;;2.35;0.85;;;16.40;99.90;;;;;;4940088;28;20039;-82
2022/06/13 08:36:14;;;;;;;4.25;1.30;;;16.30;99.90;;;;;;4940513;28;20485;-82
2022/06/13 08:38:40;;;;;;;2.13;1.15;;;16.20;99.90;;;;;;4940097;28;20043;-82
2022/06/13 08:41:18;;;;;;;4.53;1.45;;;16.60;99.90;;;;;;4940101;28;20073;-82
2022/06/13 08:44:25;;;;;;;2.05;1.23;;;17.60;99.90;;;;;;4939468;28;20047;-82
2022/06/13 08:47:06;;;;;;;3.25;0.80;;;18.60;99.90;;;;;;4940200;28;20050;-82
2022/06/13 08:49:47;;;;;;;2.45;0.77;;;19.30;99.90;;;;;;4939727;28;20070;-82
2022/06/13 08:52:27;;;;;;;2.85;0.75;;;19.10;99.90;;;;;;4940164;28;20453;-85
2022/06/13 08:55:10;;;;;;;3.05;0.80;;;18.70;99.90;;;;;;4940094;28;20082;-82
2022/06/13 08:57:49;;;;;;;2.97;0.85;;;18.80;99.90;;;;;;4940017;28;20493;-83
2022/06/13 09:00:24;;;;;;;2.92;0.80;;;19.30;99.90;;;;;;4956109;28;20100;-82
2022/06/13 09:03:31;;;;;;;3.38;1.00;;;20.10;99.90;;;;;;4939768;28;20401;-83
2022/06/13 09:06:02;;;;;;;3.03;0.80;;;20.60;99.90;;;;;;4845190;29;20052;-83
2022/06/13 09:09:04;;;;;;;3.42;1.00;;;20.40;99.90;;;;;;4954290;23;20079;-80
2022/06/13 09:11:43;;;;;;;2.78;0.75;;;20.10;99.90;;;;;;4922533;29;20130;-81
2022/06/13 09:14:27;;;;;;;2.40;0.70;;;19.80;99.90;;;;;;4921509;29;20090;-80
2022/06/13 09:17:04;;;;;;;1.92;0.73;;;19.50;99.90;;;;;;4922101;28;20071;-81
2022/06/13 09:19:55;;;;;;;2.90;0.70;;;19.30;99.90;;;;;;4922577;29;20043;-81
2022/06/13 09:22:34;;;;;;;3.08;0.88;;;19.20;99.90;;;;;;4922783;29;20405;-81
2022/06/13 09:25:20;;;;;;;3.63;1.30;;;19.20;99.90;;;;;;4921524;28;20043;-81
2022/06/13 09:28:23;;;;;;;2.65;0.65;;;18.90;99.90;;;;;;4921507;29;20043;-81
2022/06/13 09:31:06;;;;;;;1.40;0.73;;;18.50;99.90;;;;;;4922105;29;20095;-80
2022/06/13 09:34:02;;;;;;;3.35;0.90;;;18.00;99.90;;;;;;4940489;29;20449;-81
2022/06/13 09:37:09;;;;;;;3.80;0.70;;;17.60;99.90;;;;;;4940470;28;20067;-80
2022/06/13 09:39:42;;;;;;;1.52;0.80;;;17.80;99.90;;;;;;4922845;28;20039;-80
2022/06/13 09:42:34;;;;;;;4.07;0.80;;;17.80;99.90;;;;;;4922454;29;20094;-80
2022/06/13 09:45:11;;;;;;;3.35;0.90;;;17.60;99.90;;;;;;4922218;29;20528;-80
2022/06/13 09:48:30;;;;;;;2.22;0.98;;;17.50;99.90;;;;;;4924603;29;20039;-80
2022/06/13 09:51:20;;;;;;;2.58;0.70;;;18.20;99.90;;;;;;4811456;29;20169;-80
2022/06/13 09:54:05;;;;;;;3.00;0.88;;;19.50;99.90;;;;;;4813312;29;20066;-81
2022/06/13 09:56:57;;;;;;;2.22;0.52;;;20.50;99.90;;;;;;4902110;29;20055;-80
2022/06/13 10:00:00;;;;;;;1.65;0.57;;;20.70;96.90;;;;;;4926925;29;20047;-80
2022/06/13 10:03:15;;;;;;;2.38;0.70;;;20.80;99.10;;;;;;4942519;28;20045;-80
2022/06/13 10:06:29;;;;;;;4.05;0.82;;;21.40;97.80;;;;;;4828493;29;20150;-80
2022/06/13 10:09:36;;;;;;;3.13;0.77;;;21.50;92.60;;;;;;4871075;28;20051;-81
2022/06/13 10:12:32;;;;;;;3.10;0.80;;;21.90;93.10;;;;;;4928681;29;20086;-81
2022/06/13 10:15:06;;;;;;;3.50;0.80;;;22.40;91.90;;;;;;4932313;28;20094;-81
2022/06/13 10:18:06;;;;;;;2.50;0.70;;;22.70;90.30;;;;;;4952866;29;20046;-80
2022/06/13 10:21:15;;;;;;;3.38;0.80;;;22.80;89.10;;;;;;4930011;29;20054;-81
2022/06/13 10:23:56;;;;;;;2.47;0.80;;;22.50;78.20;;;;;;4924325;29;20039;-80
2022/06/13 10:26:56;;;;;;;3.38;0.90;;;22.50;86.10;;;;;;4924209;29;20129;-81
2022/06/13 10:29:55;;;;;;;2.95;0.90;;;22.10;83.20;;;;;;4923785;29;20098;-82
2022/06/13 10:32:42;;;;;;;3.50;0.90;;;21.40;79.70;;;;;;4924305;29;20055;-80
2022/06/13 10:35:25;;;;;;;4.07;0.90;;;20.90;86.40;;;;;;4924201;29;20043;-81
2022/06/13 10:38:15;;;;;;;4.05;0.60;;;21.20;91.90;;;;;;4923494;28;20513;-81
2022/06/13 10:40:58;;;;;;;3.50;0.90;;;21.20;79.50;;;;;;4938880;29;20093;-80
2022/06/13 10:43:31;;;;;;;1.83;0.70;;;20.70;84.60;;;;;;4923906;29;20531;-81
2022/06/13 10:46:04;;;;;;;2.33;0.90;;;20.10;86.60;;;;;;4923516;28;20130;-80
2022/06/13 10:48:47;;;;;;;3.28;0.73;;;19.60;87.70;;;;;;4908959;29;20082;-81
2022/06/13 10:51:24;;;;;;;3.80;0.85;;;19.30;91.10;;;;;;4923588;29;20047;-80
2022/06/13 10:54:12;;;;;;;3.33;0.90;;;19.90;96.00;;;;;;4923572;29;20506;-81
2022/06/13 10:56:46;;;;;;;2.25;0.68;;;20.40;92.60;;;;;;4924391;28;20482;-81
2022/06/13 10:59:30;;;;;;;;;;;20.30;90.30;;;;;;4943585;29;20039;-80
2022/06/13 11:02:19;;;;;;;2.28;0.80;;;20.00;87.60;;;;;;4940372;29;20406;-80
2022/06/13 11:05:03;;;;;;;2.40;0.90;;;19.50;90.40;;;;;;4925174;29;20114;-81
2022/06/13 11:08:04;;;;;;;2.70;1.00;;;19.30;92.10;;;;;;4929761;28;20127;-80
2022/06/13 11:10:41;;;;;;;2.92;0.90;;;20.00;95.80;;;;;;4930208;29;20498;-81
2022/06/13 11:13:26;;;;;;;3.10;0.93;;;20.90;95.70;;;;;;4927202;28;20039;-82
2022/06/13 11:24:58;;;;;;;3.40;0.80;;;22.00;88.00;;;;;;4939664;29;20039;-81
2022/06/13 11:27:45;;;;;;;2.85;0.85;;;22.60;84.00;;;;;;4924066;29;20190;-81
2022/06/13 11:30:36;;;;;;;3.78;1.00;;;23.50;89.50;;;;;;4924849;29;20486;-80
2022/06/13 11:33:34;;;;;;;3.33;1.00;;;24.10;81.80;;;;;;4939809;29;20086;-80
2022/06/13 11:36:14;;;;;;;4.57;0.82;;;23.90;74.20;;;;;;4923873;29;20107;-81
2022/06/13 11:38:53;;;;;;;;;;;23.30;74.30;;;;;;4924743;29;20103;-80
2022/06/13 11:41:42;;;;;;;3.95;0.80;;;23.10;78.30;;;;;;4924481;29;20350;-80
2022/06/13 11:44:18;;;;;;;2.88;0.88;;;23.30;78.70;;;;;;4923201;29;20094;-80
2022/06/13 11:47:12;;;;;;;2.97;0.88;;;23.50;75.80;;;;;;4923918;28;20047;-80
2022/06/13 11:49:55;;;;;;;2.72;0.90;;;23.10;68.20;;;;;;4938138;29;20520;-80
2022/06/13 11:55:54;;;;;;;3.63;0.95;;;22.10;73.30;;;;;;4938470;29;20070;-80
2022/06/13 11:58:34;;;;;;;4.25;0.80;;;21.60;73.50;;;;;;4922050;29;20131;-80
2022/06/13 12:01:37;;;;;;;2.17;0.70;;;21.70;78.60;;;;;;4923313;29;20039;-81
2022/06/13 12:04:24;;;;;;;6.72;1.20;;;22.30;77.20;;;;;;4918911;29;20079;-80
2022/06/13 12:07:21;;;;;;;4.55;0.80;;;22.90;74.40;;;;;;4922250;28;20047;-80
2022/06/13 12:09:59;;;;;;;2.88;0.85;;;23.20;75.00;;;;;;4922175;29;20035;-80
2022/06/13 12:12:48;;;;;;;4.00;0.75;;;23.80;74.20;;;;;;4922758;29;20370;-81
2022/06/13 12:15:23;;;;;;;2.25;0.85;;;24.20;71.10;;;;;;4922078;29;20462;-81
2022/06/13 12:18:25;;;;;;;5.32;0.70;;;24.30;72.50;;;;;;4922323;28;20129;-82
2022/06/13 12:21:04;;;;;;;3.35;1.02;;;24.40;69.60;;;;;;4922157;29;20110;-80
2022/06/13 12:24:18;;;;;;;3.10;0.80;;;24.00;63.00;;;;;;4923140;29;20411;-80
2022/06/13 12:27:02;;;;;;;2.55;0.88;;;23.30;66.30;;;;;;4921972;28;20062;-80
2022/06/13 12:29:50;;;;;;;;;;;;;;;;;;;;;
2022/06/13 12:32:36;;;;;;;3.17;0.93;;;22.90;77.10;;;;;;4937223;28;20152;-82
2022/06/13 12:35:20;;;;;;;3.22;0.93;;;23.40;73.80;;;;;;4921927;29;20565;-80
2022/06/13 12:38:22;;;;;;;4.50;1.10;;;23.20;71.80;;;;;;4921762;29;20089;-80
2022/06/13 12:41:27;;;;;;;4.40;1.00;;;22.80;71.50;;;;;;4922288;28;20036;-80
2022/06/13 12:44:33;;;;;;;2.17;0.80;;;22.20;69.70;;;;;;4922007;29;20075;-80
2022/06/13 12:47:39;;;;;;;2.80;0.90;;;21.60;71.00;;;;;;4920638;28;20044;-78
2022/06/13 12:50:26;;;;;;;3.97;0.80;;;21.10;72.60;;;;;;4921701;29;20449;-79
2022/06/13 12:53:41;;;;;;;3.88;0.77;;;20.50;74.30;;;;;;4921723;29;20035;-79
2022/06/13 12:56:45;;;;;;;3.97;1.02;;;20.50;75.20;;;;;;4920142;29;20039;-79
2022/06/13 13:00:09;;;;;;;3.53;0.85;;;20.80;79.00;;;;;;4921589;29;20055;-79
2022/06/13 13:03:06;;;;;;;3.75;1.00;;;21.50;81.60;;;;;;4915785;29;20055;-80
2022/06/13 13:06:01;;;;;;;2.65;1.10;;;22.30;78.60;;;;;;4937528;28;20142;-80
2022/06/13 13:08:59;;;;;;;5.53;0.70;;;23.30;80.50;;;;;;4920977;29;20051;-79
2022/06/13 13:11:44;;;;;;;3.15;0.90;;;24.30;75.80;;;;;;4920739;29;20142;-79
2022/06/13 13:14:42;;;;;;;3.78;1.10;;;25.00;65.30;;;;;;4937303;29;20047;-79
2022/06/13 13:17:27;;;;;;;4.63;0.80;;;25.30;67.90;;;;;;4921245;29;20047;-79
2022/06/13 13:20:41;;;;;;;3.17;0.80;;;25.50;67.70;;;;;;4921147;29;20047;-79
2022/06/13 13:23:42;;;;;;;3.40;0.80;;;25.70;63.50;;;;;;4939252;29;20500;-79
2022/06/13 13:26:32;;;;;;;2.63;0.80;;;26.10;63.70;;;;;;4921366;29;20100;-79
2022/06/13 13:29:24;;;;;;;2.70;0.70;;;26.50;66.40;;;;;;4938539;29;20449;-79
2022/06/13 13:32:25;;;;;;;4.20;0.80;;;26.80;65.20;;;;;;4925785;29;20148;-79
2022/06/13 13:35:15;;;;;;;1.98;0.60;;;26.90;62.70;;;;;;4812699;29;20444;-79
2022/06/13 13:38:01;;;;;;;3.10;1.08;;;26.80;62.00;;;;;;4812010;29;20068;-80
2022/06/13 13:41:01;;;;;;;3.15;0.90;;;26.70;61.60;;;;;;4940963;29;20075;-80
2022/06/13 13:43:40;;;;;;;3.70;0.93;;;26.60;60.00;;;;;;4925158;28;20073;-79
2022/06/13 13:46:19;;;;;;;3.30;0.90;;;26.30;62.10;;;;;;4925911;29;20039;-80
2022/06/13 13:48:52;;;;;;;3.58;0.82;;;26.30;62.90;;;;;;4924580;29;20043;-78
2022/06/13 13:51:45;;;;;;;2.92;1.10;;;26.10;59.00;;;;;;4926609;29;20146;-79
2022/06/13 13:54:54;;;;;;;2.92;0.70;;;25.80;61.00;;;;;;4925534;29;20043;-79
2022/06/13 13:57:53;;;;;;;3.00;0.90;;;25.70;59.60;;;;;;4811626;29;20051;-78
2022/06/13 14:00:24;;;;;;;2.72;0.88;;;25.40;59.70;;;;;;4811831;29;20141;-78
2022/06/13 14:03:11;;;;;;;3.30;0.70;;;25.20;61.40;;;;;;4825087;28;20074;-79
2022/06/13 14:06:01;;;;;;;3.05;0.82;;;25.10;60.40;;;;;;4924599;29;20094;-79
2022/06/13 14:08:35;;;;;;;2.30;0.70;;;24.70;60.00;;;;;;4923273;28;20039;-79
2022/06/13 14:11:08;;;;;;;2.63;0.93;;;24.50;63.30;;;;;;4908466;29;20516;-79
2022/06/13 14:13:47;;;;;;;3.70;0.95;;;24.50;63.10;;;;;;4924193;29;20078;-79